NCAR-RAP Real-Time Weather Data

Output produced by METARs form (23 July 2018  17:07 UTC)
found at http://weather.rap.ucar.edu/surface/
 
 
KN60 231652Z AUTO 30016G22KT 22/11 A3020 RMK AO1 PK WND 31028/1633 SLP224 T02170106
KN60 231552Z AUTO 31017G31KT 21/10 A3021 RMK AO1 PK WND 31031/1544 SLP228 T02060100
 
KDIK 231656Z AUTO 32012G17KT 10SM CLR 23/08 A3025 RMK AO2 SLP232 T02330078 $
KDIK 231556Z AUTO 34012KT 10SM CLR 22/08 A3026 RMK AO2 SLP235 T02220083 $
 
KBIS 231652Z 29010KT 10SM CLR 24/10 A3022 RMK AO2 SLP226 T02440100
KBIS 231552Z 31012G19KT 10SM CLR 23/09 A3022 RMK AO2 SLP228 T02330094
 
KHEI 231653Z AUTO 34006KT 10SM CLR 23/08 A3029 RMK AO2 SLP246 T02280078
KHEI 231553Z AUTO 01010KT 10SM CLR 21/09 A3029 RMK AO2 SLP248 T02110089